createdAt,value
2023-01-25T00:01:34.120Z,26.96
2023-01-25T00:04:00.756Z,26.06
2023-01-25T00:06:27.553Z,27.06
2023-01-25T00:08:54.152Z,26.11
2023-01-25T00:11:20.791Z,26.40
2023-01-25T00:13:47.406Z,25.11
2023-01-25T00:16:14.118Z,27.07
2023-01-25T00:18:40.771Z,26.51
2023-01-25T00:21:21.704Z,26.68
2023-01-25T00:23:48.488Z,26.90
2023-01-25T00:26:15.684Z,26.97
2023-01-25T00:28:42.516Z,26.75
2023-01-25T00:31:11.450Z,25.91
2023-01-25T00:33:37.937Z,25.66
2023-01-25T00:36:23.252Z,25.43
2023-01-25T00:38:49.989Z,26.35
2023-01-25T00:41:16.634Z,26.63
2023-01-25T00:43:43.295Z,25.24
2023-01-25T00:46:09.988Z,25.82
2023-01-25T00:48:36.723Z,25.64
2023-01-25T00:51:03.410Z,24.15
2023-01-25T00:53:30.173Z,25.43
2023-01-25T00:55:56.828Z,26.18
2023-01-25T00:58:23.580Z,24.87
2023-01-25T01:00:50.266Z,25.21
2023-01-25T01:03:16.912Z,24.43
2023-01-25T01:05:43.703Z,24.67
2023-01-25T01:08:10.545Z,25.13
2023-01-25T01:10:37.224Z,25.24
2023-01-25T01:13:03.932Z,24.73
2023-01-25T01:15:30.650Z,25.38
2023-01-25T01:17:57.355Z,24.70
2023-01-25T01:20:24.062Z,24.86
2023-01-25T01:22:52.584Z,24.83
2023-01-25T01:25:19.381Z,25.33
2023-01-25T01:27:46.018Z,24.46
2023-01-25T01:30:12.993Z,24.80
2023-01-25T01:32:39.724Z,25.03
2023-01-25T01:35:07.346Z,25.49
2023-01-25T01:37:34.159Z,25.06
2023-01-25T01:40:02.001Z,25.59
2023-01-25T01:42:28.615Z,25.37
2023-01-25T01:44:55.369Z,24.68
2023-01-25T01:47:22.659Z,25.68
2023-01-25T01:49:54.283Z,25.57
2023-01-25T01:52:23.719Z,25.48
2023-01-25T01:55:12.288Z,25.49
2023-01-25T01:57:47.488Z,24.95
2023-01-25T02:00:17.103Z,25.54
2023-01-25T02:02:43.877Z,25.49
2023-01-25T02:05:25.556Z,25.13
2023-01-25T02:07:52.261Z,25.88
2023-01-25T02:10:18.968Z,24.95
2023-01-25T02:12:45.797Z,24.71
2023-01-25T02:15:12.547Z,25.28
2023-01-25T02:17:39.498Z,25.13
2023-01-25T02:20:29.230Z,23.86
2023-01-25T02:23:24.136Z,24.55
2023-01-25T02:25:50.789Z,25.21
2023-01-25T02:28:23.486Z,23.58
2023-01-25T02:30:50.197Z,24.24
2023-01-25T02:33:16.870Z,24.29
2023-01-25T02:35:48.415Z,24.98
2023-01-25T02:38:16.108Z,23.77
2023-01-25T02:40:59.241Z,24.48
2023-01-25T02:43:28.352Z,23.64
2023-01-25T02:46:07.928Z,24.54
2023-01-25T02:48:34.617Z,24.84
2023-01-25T02:51:01.240Z,24.59
2023-01-25T02:53:27.874Z,25.36
2023-01-25T02:55:54.607Z,24.70
2023-01-25T02:58:21.202Z,24.84
2023-01-25T03:00:47.812Z,24.44
2023-01-25T03:03:14.573Z,23.98
2023-01-25T03:05:41.177Z,25.02
2023-01-25T03:08:07.911Z,24.52
2023-01-25T03:10:34.573Z,25.15
2023-01-25T03:13:01.207Z,25.55
2023-01-25T03:15:27.861Z,25.50
2023-01-25T03:17:55.904Z,25.37
2023-01-25T03:20:22.740Z,24.22
2023-01-25T03:22:49.398Z,24.53
2023-01-25T03:25:16.141Z,25.06
2023-01-25T03:27:42.780Z,24.68
2023-01-25T03:30:11.140Z,24.71
2023-01-25T03:32:37.759Z,25.65
2023-01-25T03:35:04.985Z,25.31
2023-01-25T03:37:31.663Z,24.86
2023-01-25T03:39:58.323Z,25.19
2023-01-25T03:42:24.948Z,25.00
2023-01-25T03:44:51.555Z,24.96
2023-01-25T03:47:18.283Z,25.24
2023-01-25T03:49:44.956Z,25.06
2023-01-25T03:52:11.706Z,24.75
2023-01-25T03:54:38.361Z,24.57
2023-01-25T03:57:05.016Z,24.36
2023-01-25T03:59:31.711Z,24.74
2023-01-25T04:01:58.367Z,24.15
2023-01-25T04:04:25.011Z,24.98
2023-01-25T04:06:51.671Z,25.85
2023-01-25T04:09:18.301Z,23.86
2023-01-25T04:11:44.908Z,25.41
2023-01-25T04:14:11.534Z,25.23
2023-01-25T04:16:38.210Z,24.95
2023-01-25T04:19:04.878Z,25.29
2023-01-25T04:21:33.776Z,25.43
2023-01-25T04:24:00.460Z,25.31
2023-01-25T04:26:27.097Z,24.64
2023-01-25T04:28:53.723Z,25.49
2023-01-25T04:31:20.494Z,24.94
2023-01-25T04:33:47.331Z,24.88
2023-01-25T04:36:14.244Z,24.60
2023-01-25T04:38:40.904Z,25.08
2023-01-25T04:41:07.617Z,25.26
2023-01-25T04:43:34.316Z,25.97
2023-01-25T04:46:02.362Z,25.53
2023-01-25T04:48:29.051Z,24.70
2023-01-25T04:50:55.703Z,24.40
2023-01-25T04:53:22.390Z,25.04
2023-01-25T04:55:49.277Z,24.47
2023-01-25T04:58:15.993Z,24.48
2023-01-25T05:00:42.617Z,24.97
2023-01-25T05:03:09.338Z,24.65
2023-01-25T05:05:35.991Z,24.75
2023-01-25T05:08:02.793Z,24.28
2023-01-25T05:10:29.413Z,24.05
2023-01-25T05:12:56.073Z,23.75
2023-01-25T05:15:23.655Z,24.81
2023-01-25T05:17:50.311Z,25.02
2023-01-25T05:20:16.983Z,24.31
2023-01-25T05:22:43.669Z,24.07
2023-01-25T05:25:10.716Z,23.96
2023-01-25T05:27:37.503Z,23.97
2023-01-25T05:30:04.505Z,24.26
2023-01-25T05:32:31.121Z,24.70
2023-01-25T05:34:59.886Z,23.68
2023-01-25T05:37:27.472Z,23.73
2023-01-25T05:39:54.184Z,24.36
2023-01-25T05:42:20.967Z,24.36
2023-01-25T05:44:48.147Z,24.23
2023-01-25T05:47:16.013Z,24.37
2023-01-25T05:49:42.674Z,23.35
2023-01-25T05:52:13.695Z,23.81
2023-01-25T05:54:40.317Z,24.14
2023-01-25T05:57:07.926Z,24.08
2023-01-25T05:59:34.532Z,23.98
2023-01-25T06:02:01.340Z,25.08
2023-01-25T06:04:28.009Z,24.36
2023-01-25T06:06:54.660Z,24.79
2023-01-25T06:09:21.296Z,24.34
2023-01-25T06:11:48.013Z,25.28
2023-01-25T06:14:14.690Z,24.45
2023-01-25T06:16:41.383Z,24.12
2023-01-25T06:19:08.160Z,24.08
2023-01-25T06:21:34.831Z,24.30
2023-01-25T06:24:01.542Z,24.89
2023-01-25T06:26:28.177Z,23.94
2023-01-25T06:28:54.802Z,23.77
2023-01-25T06:31:21.515Z,24.30
2023-01-25T06:33:49.449Z,25.25
2023-01-25T06:36:17.003Z,26.32
2023-01-25T06:38:43.640Z,24.99
2023-01-25T06:41:12.175Z,24.88
2023-01-25T06:43:39.029Z,25.62
2023-01-25T06:46:07.254Z,25.34
2023-01-25T06:48:34.007Z,24.00
2023-01-25T06:51:02.045Z,23.73
2023-01-25T06:53:30.479Z,24.10
2023-01-25T06:56:10.920Z,25.13
2023-01-25T06:58:38.445Z,25.53
2023-01-25T07:01:13.145Z,25.01
2023-01-25T07:03:39.847Z,25.51
2023-01-25T07:06:07.614Z,25.75
2023-01-25T07:08:34.400Z,24.91
2023-01-25T07:11:05.322Z,24.58
2023-01-25T07:13:32.277Z,24.57
2023-01-25T07:16:03.765Z,24.68
2023-01-25T07:18:30.826Z,24.82
2023-01-25T07:21:09.716Z,24.54
2023-01-25T07:23:36.314Z,24.98
2023-01-25T07:26:02.920Z,25.08
2023-01-25T07:28:30.617Z,25.11
2023-01-25T07:30:57.292Z,24.39
2023-01-25T07:33:23.935Z,24.36
2023-01-25T07:35:50.699Z,25.31
2023-01-25T07:38:17.379Z,24.98
2023-01-25T07:40:44.031Z,24.70
2023-01-25T07:43:10.733Z,24.17
2023-01-25T07:45:37.355Z,25.14
2023-01-25T07:48:08.277Z,25.07
2023-01-25T07:50:34.920Z,25.47
2023-01-25T07:53:01.546Z,25.06
2023-01-25T07:55:28.192Z,25.78
2023-01-25T07:57:54.896Z,25.59
2023-01-25T08:00:23.890Z,25.31
2023-01-25T08:02:51.131Z,25.47
2023-01-25T08:05:17.752Z,24.88
2023-01-25T08:07:44.449Z,26.65
2023-01-25T08:10:11.250Z,30.48
2023-01-25T08:12:37.849Z,28.02
2023-01-25T08:15:04.879Z,26.03
2023-01-25T08:17:31.492Z,25.42
2023-01-25T08:19:59.208Z,26.03
2023-01-25T08:22:25.998Z,25.24
2023-01-25T08:24:52.616Z,25.35
2023-01-25T08:27:19.267Z,25.62
2023-01-25T08:29:46.561Z,24.34
2023-01-25T08:32:13.153Z,23.85
2023-01-25T08:34:39.871Z,24.83
2023-01-25T08:37:06.553Z,24.99
2023-01-25T08:39:33.229Z,24.90
2023-01-25T08:41:59.915Z,24.80
2023-01-25T08:44:26.779Z,23.89
2023-01-25T08:46:53.467Z,24.10
2023-01-25T08:49:20.145Z,23.25
2023-01-25T08:51:46.764Z,23.68
2023-01-25T08:54:13.436Z,23.71
2023-01-25T08:56:40.432Z,24.35
2023-01-25T08:59:07.426Z,25.43
2023-01-25T09:01:34.160Z,24.42
2023-01-25T09:04:01.074Z,24.65
2023-01-25T09:06:27.804Z,25.93
2023-01-25T09:08:54.587Z,25.30
2023-01-25T09:11:22.229Z,25.18
2023-01-25T09:13:49.052Z,25.24
2023-01-25T09:16:20.283Z,25.05
2023-01-25T09:18:49.061Z,25.09
2023-01-25T09:21:17.144Z,24.75
2023-01-25T09:23:50.963Z,24.19
2023-01-25T09:26:24.451Z,25.31
2023-01-25T09:28:52.005Z,24.59
2023-01-25T09:31:22.329Z,23.13
2023-01-25T09:33:50.155Z,24.21
2023-01-25T09:36:16.797Z,24.33
2023-01-25T09:38:43.554Z,23.70
2023-01-25T09:41:58.156Z,24.62
2023-01-25T09:44:43.337Z,24.41
2023-01-25T09:47:31.179Z,23.66
2023-01-25T09:50:17.626Z,23.67
2023-01-25T09:53:04.419Z,23.50
2023-01-25T09:55:31.030Z,23.96
2023-01-25T09:57:57.906Z,24.55
2023-01-25T10:00:33.280Z,23.97
2023-01-25T10:03:13.855Z,23.15
2023-01-25T10:05:48.233Z,24.24
2023-01-25T10:08:57.000Z,24.11
2023-01-25T10:11:25.841Z,24.34
2023-01-25T10:13:52.454Z,23.94
2023-01-25T10:16:28.220Z,24.11
2023-01-25T10:19:26.080Z,23.29
2023-01-25T10:22:08.596Z,23.17
2023-01-25T10:24:51.011Z,23.49
2023-01-25T10:27:29.576Z,22.83
2023-01-25T10:29:57.059Z,23.87
2023-01-25T10:32:28.682Z,22.85
2023-01-25T10:34:57.479Z,23.15
2023-01-25T10:37:33.318Z,23.34
2023-01-25T10:40:14.574Z,22.85
2023-01-25T10:43:00.456Z,23.19
2023-01-25T10:45:27.116Z,22.68
2023-01-25T10:47:57.516Z,22.80
2023-01-25T10:50:39.175Z,23.14
2023-01-25T10:53:09.674Z,23.71
2023-01-25T10:55:36.334Z,23.44
2023-01-25T10:58:03.004Z,23.62
2023-01-25T11:00:36.434Z,22.91
2023-01-25T11:03:03.318Z,23.46
2023-01-25T11:05:38.979Z,24.05
2023-01-25T11:08:25.170Z,23.28
2023-01-25T11:10:52.374Z,22.70
2023-01-25T11:13:20.848Z,23.72
2023-01-25T11:16:13.448Z,22.92
2023-01-25T11:18:40.116Z,23.57
2023-01-25T11:21:13.057Z,23.46
2023-01-25T11:23:39.712Z,22.87
2023-01-25T11:26:17.769Z,23.76
2023-01-25T11:28:45.381Z,23.76
2023-01-25T11:31:12.894Z,24.15
2023-01-25T11:33:40.478Z,23.22
2023-01-25T11:36:16.215Z,22.17
2023-01-25T11:39:19.329Z,23.99
2023-01-25T11:42:08.746Z,24.69
2023-01-25T11:44:46.361Z,24.16
2023-01-25T11:47:25.916Z,24.29
2023-01-25T11:50:11.459Z,24.19
2023-01-25T11:53:06.181Z,24.50
2023-01-25T11:55:37.647Z,24.04
2023-01-25T11:58:29.175Z,24.25
2023-01-25T12:01:36.351Z,23.76
2023-01-25T12:04:21.198Z,23.23
2023-01-25T12:06:53.398Z,24.06
2023-01-25T12:09:44.448Z,25.12
2023-01-25T12:12:25.055Z,24.35
2023-01-25T12:14:57.598Z,24.00
2023-01-25T12:17:43.612Z,24.39
2023-01-25T12:20:17.334Z,25.10
2023-01-25T12:23:04.742Z,23.89
2023-01-25T12:26:00.545Z,23.87
2023-01-25T12:28:42.835Z,24.16
2023-01-25T12:31:38.535Z,23.61
2023-01-25T12:34:29.202Z,24.33
2023-01-25T12:36:55.817Z,24.22
2023-01-25T12:39:25.210Z,22.65
2023-01-25T12:41:58.748Z,23.23
2023-01-25T12:44:38.989Z,23.91
2023-01-25T12:47:18.237Z,24.89
2023-01-25T12:49:54.383Z,24.24
2023-01-25T12:52:24.521Z,23.59
2023-01-25T12:54:51.775Z,22.88
2023-01-25T12:57:33.303Z,22.82
2023-01-25T13:00:20.084Z,23.08
2023-01-25T13:03:20.669Z,24.39
2023-01-25T13:06:02.251Z,22.25
2023-01-25T13:08:37.534Z,22.15
2023-01-25T13:11:30.277Z,22.37
2023-01-25T13:14:15.573Z,21.29
2023-01-25T13:16:46.004Z,22.50
2023-01-25T13:19:31.030Z,22.59
2023-01-25T13:21:57.826Z,22.05
2023-01-25T13:24:28.033Z,21.00
2023-01-25T13:26:54.564Z,20.82
2023-01-25T13:29:44.427Z,20.88
2023-01-25T13:32:34.685Z,21.41
2023-01-25T13:35:01.383Z,22.25
2023-01-25T13:37:32.046Z,21.33
2023-01-25T13:40:34.528Z,22.57
2023-01-25T13:43:13.069Z,21.94
2023-01-25T13:45:40.641Z,22.77
2023-01-25T13:48:15.094Z,21.96
2023-01-25T13:50:50.405Z,21.97
2023-01-25T13:53:16.900Z,22.35
2023-01-25T13:55:45.222Z,22.16
2023-01-25T13:58:22.563Z,22.18
2023-01-25T14:00:57.166Z,23.23
2023-01-25T14:03:44.075Z,22.94
2023-01-25T14:06:22.532Z,22.63
2023-01-25T14:08:49.327Z,21.64
2023-01-25T14:11:25.636Z,22.15
2023-01-25T14:14:03.022Z,22.47
2023-01-25T14:16:30.579Z,22.05
2023-01-25T14:19:23.994Z,22.83
2023-01-25T14:21:58.066Z,23.55
2023-01-25T14:24:24.708Z,23.36
2023-01-25T14:26:51.379Z,23.23
2023-01-25T14:29:31.774Z,22.72
2023-01-25T14:31:59.533Z,22.60
2023-01-25T14:34:26.687Z,22.43
2023-01-25T14:37:25.455Z,22.92
2023-01-25T14:39:52.094Z,21.88
2023-01-25T14:42:18.751Z,20.97
2023-01-25T14:44:45.411Z,21.20
2023-01-25T14:47:31.446Z,21.60
2023-01-25T14:50:28.917Z,21.74
2023-01-25T14:52:55.686Z,20.53
2023-01-25T14:55:22.403Z,21.25
2023-01-25T14:57:49.072Z,21.05
2023-01-25T15:00:23.749Z,21.69
2023-01-25T15:03:00.065Z,21.47
2023-01-25T15:05:49.796Z,21.41
2023-01-25T15:08:37.347Z,21.76
2023-01-25T15:11:04.051Z,22.82
2023-01-25T15:13:30.659Z,22.31
2023-01-25T15:15:58.004Z,22.40
2023-01-25T15:18:50.304Z,22.92
2023-01-25T15:21:32.109Z,22.93
2023-01-25T15:23:59.923Z,22.95
2023-01-25T15:26:31.351Z,22.92
2023-01-25T15:28:59.563Z,22.56
2023-01-25T15:31:30.502Z,24.14
2023-01-25T15:33:57.308Z,24.07
2023-01-25T15:36:23.999Z,24.39
2023-01-25T15:38:50.635Z,23.08
2023-01-25T15:41:17.363Z,24.77
2023-01-25T15:43:44.353Z,24.03
2023-01-25T15:46:40.886Z,24.58
2023-01-25T15:49:07.789Z,24.50
2023-01-25T15:51:35.802Z,23.57
2023-01-25T15:54:02.589Z,24.32
2023-01-25T15:56:32.730Z,24.26
2023-01-25T15:59:00.541Z,23.93
2023-01-25T16:01:28.586Z,23.24
2023-01-25T16:03:55.952Z,22.92
2023-01-25T16:06:51.540Z,24.22
2023-01-25T16:09:25.751Z,23.82
2023-01-25T16:11:56.709Z,23.95
2023-01-25T16:14:24.758Z,24.04
2023-01-25T16:16:52.163Z,24.40
2023-01-25T16:19:20.344Z,24.06
2023-01-25T16:21:47.080Z,23.63
2023-01-25T16:24:13.814Z,23.63
2023-01-25T16:26:54.350Z,24.74
2023-01-25T16:29:21.356Z,23.68
2023-01-25T16:31:48.086Z,23.82
2023-01-25T16:34:14.765Z,23.26
2023-01-25T16:36:41.418Z,24.17
2023-01-25T16:39:22.808Z,23.96
2023-01-25T16:41:49.524Z,23.50
2023-01-25T16:44:16.492Z,23.21
2023-01-25T16:46:43.406Z,22.34
2023-01-25T16:49:18.938Z,22.55
2023-01-25T16:51:45.635Z,22.71
2023-01-25T16:54:12.291Z,21.94
2023-01-25T16:56:38.949Z,22.13
2023-01-25T16:59:05.781Z,21.75
2023-01-25T17:01:32.512Z,22.59
2023-01-25T17:03:59.268Z,23.60
2023-01-25T17:06:27.620Z,23.61
2023-01-25T17:09:00.347Z,23.88
2023-01-25T17:11:27.313Z,23.22
2023-01-25T17:13:56.955Z,24.19
2023-01-25T17:16:24.484Z,23.80
2023-01-25T17:18:58.938Z,24.32
2023-01-25T17:21:25.988Z,24.74
2023-01-25T17:23:52.720Z,24.10
2023-01-25T17:26:20.427Z,25.00
2023-01-25T17:28:47.368Z,24.87
2023-01-25T17:31:33.439Z,24.87
2023-01-25T17:34:04.567Z,24.47
2023-01-25T17:36:31.302Z,25.79
2023-01-25T17:39:04.776Z,26.39
2023-01-25T17:41:31.537Z,27.54
2023-01-25T17:43:58.379Z,26.57
2023-01-25T17:46:26.663Z,27.28
2023-01-25T17:48:53.809Z,26.57
2023-01-25T17:51:20.891Z,27.11
2023-01-25T17:53:48.210Z,27.16
2023-01-25T17:56:14.905Z,27.10
2023-01-25T17:58:42.680Z,27.45
2023-01-25T18:01:14.057Z,26.68
2023-01-25T18:03:41.797Z,26.27
2023-01-25T18:06:08.499Z,26.16
2023-01-25T18:08:42.393Z,31.50
2023-01-25T18:11:09.484Z,27.70
2023-01-25T18:13:40.423Z,28.01
2023-01-25T18:16:07.427Z,27.06
2023-01-25T18:18:34.119Z,26.25
2023-01-25T18:21:11.670Z,26.33
2023-01-25T18:23:38.657Z,27.18
2023-01-25T18:26:05.888Z,27.55
2023-01-25T18:28:32.791Z,28.21
2023-01-25T18:31:04.412Z,27.72
2023-01-25T18:33:31.283Z,27.74
2023-01-25T18:35:57.916Z,27.39
2023-01-25T18:38:24.628Z,27.39
2023-01-25T18:40:51.318Z,28.19
2023-01-25T18:43:17.959Z,26.36
2023-01-25T18:45:44.667Z,25.88
2023-01-25T18:48:12.043Z,28.39
2023-01-25T18:50:42.012Z,28.19
2023-01-25T18:53:09.257Z,27.38
2023-01-25T18:55:36.905Z,27.25
2023-01-25T18:58:04.344Z,27.06
2023-01-25T19:00:32.082Z,28.13
2023-01-25T19:02:59.068Z,28.29
2023-01-25T19:05:25.956Z,27.42
2023-01-25T19:07:52.769Z,28.26
2023-01-25T19:10:19.397Z,28.71
2023-01-25T19:12:47.036Z,28.68
2023-01-25T19:15:14.309Z,29.56
2023-01-25T19:17:41.200Z,28.77
2023-01-25T19:20:08.581Z,29.67
2023-01-25T19:22:35.270Z,28.83
2023-01-25T19:25:01.935Z,29.14
2023-01-25T19:27:28.558Z,29.89
2023-01-25T19:29:55.233Z,29.60
2023-01-25T19:32:21.879Z,31.12
2023-01-25T19:34:48.551Z,31.25
2023-01-25T19:37:17.023Z,29.99
2023-01-25T19:39:44.058Z,29.55
2023-01-25T19:42:10.727Z,30.60
2023-01-25T19:44:37.477Z,30.05
2023-01-25T19:47:04.146Z,29.92
2023-01-25T19:49:30.770Z,30.34
2023-01-25T19:51:57.482Z,29.41
2023-01-25T19:54:24.288Z,29.66
2023-01-25T19:56:51.056Z,29.52
2023-01-25T19:59:21.602Z,29.51
2023-01-25T20:01:48.521Z,29.87
2023-01-25T20:04:22.378Z,29.44
2023-01-25T20:06:49.556Z,29.07
2023-01-25T20:09:16.688Z,28.21
2023-01-25T20:11:44.334Z,29.29
2023-01-25T20:14:11.613Z,29.49
2023-01-25T20:16:38.296Z,28.71
2023-01-25T20:19:05.736Z,29.59
2023-01-25T20:21:32.356Z,28.59
2023-01-25T20:24:02.363Z,28.93
2023-01-25T20:26:31.089Z,29.26
2023-01-25T20:28:57.939Z,28.46
2023-01-25T20:31:29.479Z,29.68
2023-01-25T20:33:57.860Z,29.16
2023-01-25T20:36:25.123Z,28.51
2023-01-25T20:38:51.767Z,28.41
2023-01-25T20:41:18.727Z,28.98
2023-01-25T20:43:49.006Z,29.00
2023-01-25T20:46:16.209Z,28.68
2023-01-25T20:48:43.147Z,29.85
2023-01-25T20:51:10.329Z,29.94
2023-01-25T20:53:37.024Z,29.91
2023-01-25T20:56:03.818Z,29.62
2023-01-25T20:58:30.481Z,29.43
2023-01-25T21:00:57.184Z,30.83
2023-01-25T21:03:24.141Z,29.76
2023-01-25T21:05:51.219Z,29.69
2023-01-25T21:08:19.364Z,28.49
2023-01-25T21:10:53.513Z,29.67
2023-01-25T21:13:20.279Z,28.78
2023-01-25T21:16:10.835Z,27.86
2023-01-25T21:18:42.160Z,29.85
2023-01-25T21:21:10.343Z,29.74
2023-01-25T21:23:38.448Z,28.69
2023-01-25T21:26:05.507Z,28.51
2023-01-25T21:28:32.646Z,29.05
2023-01-25T21:31:07.469Z,29.11
2023-01-25T21:33:34.172Z,29.41
2023-01-25T21:36:01.385Z,28.92
2023-01-25T21:38:28.027Z,28.49
2023-01-25T21:41:00.471Z,29.59
2023-01-25T21:43:27.193Z,28.70
2023-01-25T21:45:53.872Z,28.69
2023-01-25T21:48:20.508Z,27.56
2023-01-25T21:50:47.124Z,28.95
2023-01-25T21:53:13.796Z,29.22
2023-01-25T21:55:40.462Z,28.93
2023-01-25T21:58:07.101Z,28.95
2023-01-25T22:00:33.720Z,28.67
2023-01-25T22:03:00.348Z,29.04
2023-01-25T22:05:27.020Z,28.92
2023-01-25T22:07:53.787Z,28.27
2023-01-25T22:10:20.480Z,27.74
2023-01-25T22:12:47.132Z,27.84
2023-01-25T22:15:13.796Z,28.30
2023-01-25T22:17:40.481Z,27.91
2023-01-25T22:20:07.393Z,27.84
2023-01-25T22:22:34.079Z,26.43
2023-01-25T22:25:00.690Z,26.74
2023-01-25T22:27:30.831Z,26.46
2023-01-25T22:29:57.441Z,26.18
2023-01-25T22:32:24.080Z,25.82
2023-01-25T22:34:50.689Z,25.39
2023-01-25T22:37:17.358Z,25.64
2023-01-25T22:39:43.977Z,25.99
2023-01-25T22:42:10.891Z,25.30
2023-01-25T22:44:37.771Z,24.27
2023-01-25T22:47:04.436Z,24.60
2023-01-25T22:49:31.151Z,24.86
2023-01-25T22:51:57.747Z,24.22
2023-01-25T22:54:24.410Z,25.59
2023-01-25T22:56:51.071Z,25.54
2023-01-25T22:59:17.739Z,24.96
2023-01-25T23:01:44.341Z,24.54
2023-01-25T23:04:11.015Z,23.31
2023-01-25T23:06:37.659Z,23.31
2023-01-25T23:09:05.340Z,24.14
2023-01-25T23:11:34.125Z,23.78
2023-01-25T23:14:01.012Z,23.41
2023-01-25T23:16:27.746Z,22.96
2023-01-25T23:18:54.393Z,23.79
2023-01-25T23:21:22.142Z,24.09
2023-01-25T23:23:48.963Z,24.11
2023-01-25T23:26:15.615Z,23.60
2023-01-25T23:28:42.326Z,23.61
2023-01-25T23:31:13.192Z,22.82
2023-01-25T23:33:40.314Z,24.27
2023-01-25T23:36:10.619Z,24.20
2023-01-25T23:38:37.848Z,23.74
2023-01-25T23:41:05.434Z,23.79
2023-01-25T23:43:32.327Z,23.48
2023-01-25T23:45:59.020Z,23.44
2023-01-25T23:48:25.817Z,24.51
2023-01-25T23:50:52.647Z,24.91
2023-01-25T23:53:19.444Z,24.66
2023-01-25T23:56:02.556Z,25.34
2023-01-25T23:58:29.626Z,25.01
